Time;durP1;ratioP1;P1;durP2;ratioP2;P2;SDS_P1;SDS_P2;PMS_P1;PMS_P2;Temp;Humidity;BMP_temperature;BMP_pressure;BME280_temperature;BME280_humidity;BME280_pressure;Samples;Min_cycle;Max_cycle;Signal;HPM_P1;HPM_P2
2024/02/01 00:03:31;;;;;;;;;;;;;;;17.41;40.33;100524.19;10330307;28;1906;-72
2024/02/01 00:08:27;;;;;;;;;;;;;;;17.42;40.16;100498.69;10330194;28;773;-71
2024/02/01 00:13:23;;;;;;;;;;;;;;;17.41;40.48;100494.34;10329863;28;873;-71
2024/02/01 00:18:19;;;;;;;;;;;;;;;17.41;40.52;100487.31;10330978;28;873;-72
2024/02/01 00:23:15;;;;;;;;;;;;;;;17.39;40.47;100483.00;10330385;28;2024;-72
2024/02/01 00:28:11;;;;;;;;;;;;;;;17.38;40.63;100476.00;10329918;28;1529;-71
2024/02/01 00:33:06;;;;;;;;;;;;;;;17.37;40.57;100490.06;10329686;28;819;-71
2024/02/01 00:38:02;;;;;;;;;;;;;;;17.39;40.45;100483.00;10330778;28;939;-72
2024/02/01 00:42:58;;;;;;;;;;;;;;;17.35;40.51;100473.47;10329882;28;1918;-71
2024/02/01 00:47:54;;;;;;;;;;;;;;;17.34;40.57;100474.34;10329108;28;880;-72
2024/02/01 00:52:50;;;;;;;;;;;;;;;17.33;40.64;100462.09;10328844;28;1003;-72
2024/02/01 00:57:46;;;;;;;;;;;;;;;17.31;40.86;100459.50;10329333;28;827;-71
2024/02/01 01:02:42;;;;;;;;;;;;;;;17.31;40.94;100452.44;10329110;28;1866;-71
2024/02/01 01:07:37;;;;;;;;;;;;;;;17.31;40.84;100452.44;10328956;28;827;-71
2024/02/01 01:12:33;;;;;;;;;;;;;;;17.28;41.05;100460.44;10328159;28;810;-71
2024/02/01 01:17:29;;;;;;;;;;;;;;;17.28;41.17;100463.09;10328442;28;865;-71
2024/02/01 01:22:25;;;;;;;;;;;;;;;17.27;41.27;100471.91;10328281;28;1889;-72
2024/02/01 01:32:36;;;;;;;;;;;;;;;17.26;41.44;100456.13;10550996;22;1934;-73
2024/02/01 01:37:32;;;;;;;;;;;;;;;17.24;41.37;100450.94;10245967;28;1000;-73
2024/02/01 01:42:28;;;;;;;;;;;;;;;17.25;41.35;100452.63;10246371;28;1918;-73
2024/02/01 01:47:24;;;;;;;;;;;;;;;17.25;41.28;100460.53;10245576;28;795;-73
2024/02/01 01:52:20;;;;;;;;;;;;;;;17.22;41.47;100460.66;10246060;28;799;-73
2024/02/01 01:57:16;;;;;;;;;;;;;;;17.21;41.55;100456.28;10245224;28;796;-73
2024/02/01 02:02:12;;;;;;;;;;;;;;;17.21;41.47;100458.94;10245105;28;1981;-73
2024/02/01 02:07:07;;;;;;;;;;;;;;;17.20;41.65;100470.34;10244902;28;771;-73
2024/02/01 02:12:04;;;;;;;;;;;;;;;17.20;41.64;100457.19;10244908;28;873;-73
2024/02/01 02:17:00;;;;;;;;;;;;;;;17.19;41.70;100452.84;10244570;28;899;-73
2024/02/01 02:21:56;;;;;;;;;;;;;;;17.19;41.74;100437.03;10244987;28;1977;-73
2024/02/01 02:26:51;;;;;;;;;;;;;;;17.19;41.87;100444.94;10243272;28;1060;-73
2024/02/01 02:31:47;;;;;;;;;;;;;;;17.19;41.74;100441.44;10244280;28;1125;-73
2024/02/01 02:36:43;;;;;;;;;;;;;;;17.20;41.82;100448.44;10244053;28;893;-73
2024/02/01 02:41:39;;;;;;;;;;;;;;;17.17;41.92;100440.63;10244558;28;1914;-73
2024/02/01 02:46:35;;;;;;;;;;;;;;;17.17;41.94;100457.28;10244501;28;795;-73
2024/02/01 02:51:31;;;;;;;;;;;;;;;17.16;41.99;100449.41;10243876;28;778;-73
2024/02/01 02:56:27;;;;;;;;;;;;;;;17.16;41.97;100454.69;10243757;28;853;-73
2024/02/01 03:01:22;;;;;;;;;;;;;;;17.16;41.85;100445.03;10243491;28;1890;-73
2024/02/01 03:06:18;;;;;;;;;;;;;;;17.14;41.93;100446.84;10243665;28;925;-73
2024/02/01 03:11:14;;;;;;;;;;;;;;;17.14;41.98;100438.94;10242902;28;918;-73
2024/02/01 03:16:10;;;;;;;;;;;;;;;17.13;41.92;100429.28;10243363;28;833;-73
2024/02/01 03:21:09;;;;;;;;;;;;;;;17.12;42.05;100438.13;10243815;28;1901;-73
2024/02/01 03:26:05;;;;;;;;;;;;;;;17.13;42.15;100449.50;10243173;28;1089;-73
2024/02/01 03:31:02;;;;;;;;;;;;;;;17.11;42.07;100444.31;10242398;28;1405;-73
2024/02/01 03:35:59;;;;;;;;;;;;;;;17.13;42.13;100462.69;10243668;28;883;-73
2024/02/01 03:40:55;;;;;;;;;;;;;;;17.12;42.21;100446.00;10246666;28;1922;-73
2024/02/01 03:45:51;;;;;;;;;;;;;;;17.11;42.08;100452.19;10250924;28;857;-73
2024/02/01 03:50:49;;;;;;;;;;;;;;;17.11;42.19;100460.09;10250098;28;940;-73
2024/02/01 03:55:48;;;;;;;;;;;;;;;17.11;42.12;100453.94;10251094;28;910;-73
2024/02/01 04:00:44;;;;;;;;;;;;;;;17.08;42.14;100455.78;10249585;28;1897;-73
2024/02/01 04:05:40;;;;;;;;;;;;;;;17.09;42.34;100456.66;10249558;28;831;-73
2024/02/01 04:10:36;;;;;;;;;;;;;;;17.09;42.28;100459.28;10249375;28;939;-73
2024/02/01 04:15:32;;;;;;;;;;;;;;;17.08;42.22;100468.06;10249781;28;858;-73
2024/02/01 04:20:29;;;;;;;;;;;;;;;17.08;42.28;100476.84;10250154;28;909;-73
2024/02/01 04:25:25;;;;;;;;;;;;;;;17.08;42.37;100481.25;10249763;28;904;-73
2024/02/01 04:30:21;;;;;;;;;;;;;;;17.08;42.42;100489.13;10248586;28;1322;-73
2024/02/01 04:35:17;;;;;;;;;;;;;;;17.08;42.32;100486.50;10248349;28;882;-73
2024/02/01 04:40:12;;;;;;;;;;;;;;;17.06;42.33;100486.56;10248240;28;815;-73
2024/02/01 04:45:09;;;;;;;;;;;;;;;17.07;42.55;100484.78;10248818;28;1980;-73
2024/02/01 04:50:05;;;;;;;;;;;;;;;17.10;42.46;100492.59;10247211;28;1387;-73
2024/02/01 04:55:04;;;;;;;;;;;;;;;17.12;42.55;100500.47;10247715;28;876;-73
2024/02/01 05:00:00;;;;;;;;;;;;;;;17.12;42.43;100506.59;10247549;28;947;-72
2024/02/01 05:04:56;;;;;;;;;;;;;;;17.13;42.42;100503.03;10247124;28;1894;-73
2024/02/01 05:09:53;;;;;;;;;;;;;;;17.14;42.52;100512.69;10248131;28;894;-73
2024/02/01 05:14:49;;;;;;;;;;;;;;;17.18;42.47;100521.38;10247074;28;942;-73
2024/02/01 05:19:46;;;;;;;;;;;;;;;17.18;42.60;100535.38;10246677;28;993;-73
2024/02/01 05:24:41;;;;;;;;;;;;;;;17.19;42.58;100545.03;10246378;28;1949;-73
2024/02/01 05:29:37;;;;;;;;;;;;;;;17.21;42.58;100539.72;10246152;28;1487;-73
2024/02/01 05:34:36;;;;;;;;;;;;;;;17.23;42.38;100546.66;10245380;28;826;-71
2024/02/01 05:39:32;;;;;;;;;;;;;;;17.25;42.53;100554.53;10246556;28;870;-73
2024/02/01 05:44:28;;;;;;;;;;;;;;;17.25;42.69;100558.03;10246312;28;1906;-73
2024/02/01 05:49:24;;;;;;;;;;;;;;;17.26;42.47;100572.91;10245612;28;877;-73
2024/02/01 05:54:19;;;;;;;;;;;;;;;17.26;42.62;100572.91;10246019;28;798;-73
2024/02/01 05:59:16;;;;;;;;;;;;;;;17.29;42.42;100590.41;10245194;28;827;-73
2024/02/01 06:04:11;;;;;;;;;;;;;;;17.29;42.59;100591.31;10244421;28;1902;-73
2024/02/01 06:09:11;;;;;;;;;;;;;;;17.29;42.54;100595.69;10244893;28;877;-73
2024/02/01 06:14:07;;;;;;;;;;;;;;;17.30;42.42;100611.47;10244211;28;1333;-73
2024/02/01 06:19:03;;;;;;;;;;;;;;;17.31;42.59;100617.59;10244613;28;959;-73
2024/02/01 06:23:59;;;;;;;;;;;;;;;17.31;42.52;100626.34;10244963;28;1957;-73
2024/02/01 06:28:56;;;;;;;;;;;;;;;17.32;42.57;100635.16;10244088;28;1149;-72
2024/02/01 06:33:52;;;;;;;;;;;;;;;17.34;42.68;100646.50;10244054;28;879;-73
2024/02/01 06:44:09;;;;;;;;;;;;;;;17.36;42.67;100675.44;10244574;28;1910;-74
2024/02/01 06:49:18;;;;;;;;;;;;;;;17.37;42.65;100688.59;10244516;28;866;-72
2024/02/01 06:54:28;;;;;;;;;;;;;;;17.38;42.74;100714.03;10243726;28;1459;-73
2024/02/01 06:59:54;;;;;;;;;;;;;;;17.39;42.65;100725.44;10244509;28;841;-73
2024/02/01 07:04:55;;;;;;;;;;;;;;;17.40;42.58;100735.94;10243467;28;1894;-79
2024/02/01 07:09:57;;;;;;;;;;;;;;;17.40;42.72;100753.53;10243704;28;906;-73
2024/02/01 07:15:19;;;;;;;;;;;;;;;17.41;42.64;100764.03;10246718;28;868;-73
2024/02/01 07:20:14;;;;;;;;;;;;;;;17.38;42.83;100772.00;10251410;28;1794;-73
2024/02/01 07:25:10;;;;;;;;;;;;;;;17.35;42.75;100781.78;10251868;28;1898;-73
2024/02/01 08:01:48;;;;;;;;;;;;;;;17.34;42.98;100838.88;10249287;28;1874;-74
2024/02/01 08:11:58;;;;;;;;;;;;;;;17.37;43.17;100846.72;10249166;28;614;-73
2024/02/01 08:16:54;;;;;;;;;;;;;;;17.40;43.14;100864.22;10248565;28;1176;-73
2024/02/01 08:21:51;;;;;;;;;;;;;;;17.42;43.20;100873.84;10249533;28;1927;-74
2024/02/01 08:26:47;;;;;;;;;;;;;;;17.42;43.12;100872.94;10247984;28;818;-74
2024/02/01 08:31:43;;;;;;;;;;;;;;;17.43;43.03;100875.56;10248811;28;1556;-73
2024/02/01 08:36:41;;;;;;;;;;;;;;;17.44;42.96;100892.22;10248064;28;960;-73
2024/02/01 08:41:37;;;;;;;;;;;;;;;17.45;43.21;100899.25;10248227;28;1919;-73
2024/02/01 08:46:33;;;;;;;;;;;;;;;17.46;42.95;100925.56;10248579;28;1799;-73
2024/02/01 08:51:29;;;;;;;;;;;;;;;17.47;42.95;100929.91;10247902;28;972;-73
2024/02/01 08:56:36;;;;;;;;;;;;;;;17.48;43.04;100929.03;10248289;28;793;-79
2024/02/01 09:01:32;;;;;;;;;;;;;;;17.46;43.06;100943.16;10247460;28;1894;-79
2024/02/01 09:06:28;;;;;;;;;;;;;;;17.47;43.08;100965.97;10247431;28;906;-75
2024/02/01 09:11:28;;;;;;;;;;;;;;;17.46;42.82;100948.41;10247680;28;814;-78
2024/02/01 09:16:30;;;;;;;;;;;;;;;17.47;42.73;100955.41;10247485;28;843;-73
2024/02/01 09:21:26;;;;;;;;;;;;;;;17.49;42.75;100966.78;10246667;28;1893;-72
2024/02/01 09:26:22;;;;;;;;;;;;;;;17.50;42.87;100966.78;10246446;28;913;-73
2024/02/01 09:31:21;;;;;;;;;;;;;;;17.51;42.81;100973.78;10246586;28;1117;-73
2024/02/01 09:36:18;;;;;;;;;;;;;;;17.52;42.71;100986.03;10246073;28;898;-73
2024/02/01 09:41:18;;;;;;;;;;;;;;;17.52;42.83;100974.63;10245865;28;1914;-73
2024/02/01 09:46:16;;;;;;;;;;;;;;;17.54;42.77;101001.84;10245854;28;923;-73
2024/02/01 09:51:17;;;;;;;;;;;;;;;17.54;42.60;101004.47;10245660;28;798;-73
2024/02/01 09:56:13;;;;;;;;;;;;;;;17.54;42.87;101001.84;10246228;28;861;-73
2024/02/01 10:01:12;;;;;;;;;;;;;;;17.58;42.81;101011.41;10246170;28;1971;-73
2024/02/01 10:06:08;;;;;;;;;;;;;;;17.58;42.67;101015.81;10245107;28;790;-73
2024/02/01 10:11:04;;;;;;;;;;;;;;;17.58;42.65;101029.88;10244886;28;890;-73
2024/02/01 10:16:00;;;;;;;;;;;;;;;17.59;42.62;101028.97;10245353;28;854;-73
2024/02/01 10:20:59;;;;;;;;;;;;;;;17.59;42.55;101028.09;10244587;28;1893;-74
2024/02/01 10:25:55;;;;;;;;;;;;;;;17.62;42.41;101028.03;10245064;28;801;-73
2024/02/01 10:30:50;;;;;;;;;;;;;;;17.64;42.46;101031.50;10244670;28;1125;-73
2024/02/01 10:35:48;;;;;;;;;;;;;;;17.63;42.48;101032.38;10244153;28;901;-73
2024/02/01 10:40:44;;;;;;;;;;;;;;;17.66;42.54;101030.56;10244041;28;1922;-73
2024/02/01 10:45:40;;;;;;;;;;;;;;;17.65;42.51;101039.38;10243916;28;802;-73
2024/02/01 10:50:36;;;;;;;;;;;;;;;17.65;42.66;101022.69;10253332;28;882;-73
2024/02/01 10:55:32;;;;;;;;;;;;;;;17.65;42.68;101034.09;10257869;28;819;-73
2024/02/01 11:00:28;;;;;;;;;;;;;;;17.66;42.37;101030.56;10256953;28;899;-74
2024/02/01 11:05:24;;;;;;;;;;;;;;;17.63;42.34;101022.72;10257033;28;1950;-74
2024/02/01 11:10:22;;;;;;;;;;;;;;;17.64;42.14;101031.50;10256410;28;917;-71
2024/02/01 11:15:18;;;;;;;;;;;;;;;17.62;42.28;101034.16;10256832;28;958;-74
2024/02/01 11:20:14;;;;;;;;;;;;;;;17.66;42.28;101046.41;10256780;28;875;-71
2024/02/01 11:25:10;;;;;;;;;;;;;;;17.65;42.40;101034.09;10256626;28;1890;-72
2024/02/01 11:30:24;;;;;;;;;;;;;;;17.66;42.23;101048.16;10256095;28;1243;-72
2024/02/01 11:35:22;;;;;;;;;;;;;;;17.65;42.31;101051.69;10257071;28;826;-71
2024/02/01 11:40:20;;;;;;;;;;;;;;;17.65;42.44;101049.91;10255816;28;1108;-72
2024/02/01 11:45:15;;;;;;;;;;;;;;;17.65;42.44;101049.06;10256843;28;1922;-72
2024/02/01 11:50:11;;;;;;;;;;;;;;;17.64;42.47;101036.78;10256879;28;867;-72
2024/02/01 11:55:07;;;;;;;;;;;;;;;17.66;42.58;101034.97;10256424;28;1009;-71
2024/02/01 12:00:12;;;;;;;;;;;;;;;17.66;42.31;101038.47;10253992;28;806;-72
2024/02/01 12:05:08;;;;;;;;;;;;;;;17.69;42.50;101030.50;10247943;28;1979;-71
2024/02/01 12:10:10;;;;;;;;;;;;;;;17.72;42.47;101032.19;10249316;28;986;-72
2024/02/01 12:15:06;;;;;;;;;;;;;;;17.74;42.28;101035.69;10249245;28;818;-72
2024/02/01 12:20:02;;;;;;;;;;;;;;;17.75;42.59;101029.50;10248966;28;1000;-72
2024/02/01 12:24:58;;;;;;;;;;;;;;;17.75;42.61;101029.50;10248685;28;1911;-72
2024/02/01 12:29:54;;;;;;;;;;;;;;;17.77;42.65;101037.38;10248829;28;1128;-71
2024/02/01 12:34:50;;;;;;;;;;;;;;;17.75;42.62;101042.66;10248325;28;885;-72
2024/02/01 12:39:46;;;;;;;;;;;;;;;17.78;42.44;101041.75;10248128;28;957;-71
2024/02/01 12:44:43;;;;;;;;;;;;;;;17.80;42.57;101037.34;10247826;28;1910;-72
2024/02/01 12:49:38;;;;;;;;;;;;;;;17.77;42.50;101040.88;10247849;28;787;-72
2024/02/01 12:54:34;;;;;;;;;;;;;;;17.82;42.23;101035.53;10247700;28;918;-72
2024/02/01 12:59:30;;;;;;;;;;;;;;;17.93;42.25;101025.59;10247349;28;958;-71
2024/02/01 13:04:26;;;;;;;;;;;;;;;17.98;41.99;101030.78;10247344;28;1968;-71
2024/02/01 13:09:28;;;;;;;;;;;;;;;18.01;41.84;101036.81;10247604;28;944;-72
2024/02/01 13:14:28;;;;;;;;;;;;;;;18.06;41.74;101031.44;10247132;28;818;-72
2024/02/01 13:19:24;;;;;;;;;;;;;;;18.11;41.62;101040.13;10246588;28;848;-71
2024/02/01 13:24:22;;;;;;;;;;;;;;;18.05;41.75;101046.41;10246097;28;1906;-76
2024/02/01 13:29:18;;;;;;;;;;;;;;;18.14;41.70;101048.81;10246034;28;1151;-72
2024/02/01 13:34:14;;;;;;;;;;;;;;;18.11;41.73;101053.31;10246728;28;826;-73
2024/02/01 13:39:11;;;;;;;;;;;;;;;18.02;42.02;101059.66;10245739;28;794;-72
2024/02/01 13:44:08;;;;;;;;;;;;;;;18.02;41.77;101046.47;10246274;28;2236;-73
2024/02/01 13:49:04;;;;;;;;;;;;;;;17.99;41.84;101056.25;10246096;28;770;-73
2024/02/01 13:54:00;;;;;;;;;;;;;;;17.99;41.64;101056.25;10245291;28;953;-73
2024/02/01 13:58:55;;;;;;;;;;;;;;;17.98;41.88;101063.28;10245135;28;959;-72
2024/02/01 14:03:51;;;;;;;;;;;;;;;17.94;41.83;101049.28;10245150;28;1890;-73
2024/02/01 14:08:47;;;;;;;;;;;;;;;17.96;41.79;101067.72;10245346;28;814;-73
2024/02/01 14:13:43;;;;;;;;;;;;;;;17.96;41.84;101071.22;10244719;28;755;-74
2024/02/01 14:18:39;;;;;;;;;;;;;;;18.02;41.72;101074.63;10245131;28;846;-73
2024/02/01 14:23:35;;;;;;;;;;;;;;;18.08;41.32;101074.50;10243660;28;1914;-73
2024/02/01 14:28:31;;;;;;;;;;;;;;;18.09;41.45;101077.09;10245093;28;927;-71
2024/02/01 14:33:26;;;;;;;;;;;;;;;18.08;41.60;101070.09;10243784;28;1414;-73
2024/02/01 14:38:22;;;;;;;;;;;;;;;18.08;41.46;101080.66;10244586;28;783;-73
2024/02/01 14:43:18;;;;;;;;;;;;;;;18.07;41.26;101081.53;10244088;28;1910;-74
2024/02/01 14:48:14;;;;;;;;;;;;;;;18.09;41.54;101084.16;10244351;28;866;-74
2024/02/01 14:53:10;;;;;;;;;;;;;;;18.13;41.71;101078.78;10243695;28;801;-74
2024/02/01 14:58:06;;;;;;;;;;;;;;;18.18;41.67;101083.91;10243623;28;759;-74
2024/02/01 15:03:02;;;;;;;;;;;;;;;18.27;41.43;101096.03;10242860;28;1957;-74
2024/02/01 15:07:58;;;;;;;;;;;;;;;18.34;41.50;101108.19;10243987;28;861;-74
2024/02/01 15:12:54;;;;;;;;;;;;;;;18.32;41.40;101110.00;10243289;28;794;-74
2024/02/01 15:17:50;;;;;;;;;;;;;;;18.28;41.56;101118.88;10243982;28;1008;-73
2024/02/01 15:22:46;;;;;;;;;;;;;;;18.25;41.53;101111.03;10243761;28;1907;-73
2024/02/01 15:27:42;;;;;;;;;;;;;;;18.15;41.84;101111.25;10241765;28;1097;-73
2024/02/01 15:32:38;;;;;;;;;;;;;;;18.08;41.87;101120.22;10243612;28;1098;-73
2024/02/01 15:37:34;;;;;;;;;;;;;;;18.08;42.10;101116.72;10248046;28;957;-73
2024/02/01 15:42:30;;;;;;;;;;;;;;;18.06;42.28;101122.03;10249743;28;1964;-74
2024/02/01 15:47:26;;;;;;;;;;;;;;;18.04;42.28;101121.19;10250483;28;796;-72
2024/02/01 15:52:22;;;;;;;;;;;;;;;18.05;42.27;101135.22;10249981;28;921;-73
2024/02/01 15:57:18;;;;;;;;;;;;;;;18.03;42.21;101134.44;10250505;28;830;-73
2024/02/01 16:02:14;;;;;;;;;;;;;;;18.05;42.30;101137.88;10250181;28;1952;-75
2024/02/01 16:07:10;;;;;;;;;;;;;;;18.03;42.42;101137.94;10249538;28;774;-73
2024/02/01 16:12:06;;;;;;;;;;;;;;;18.01;42.40;101138.84;10249306;28;865;-73
2024/02/01 16:17:02;;;;;;;;;;;;;;;18.03;42.50;101140.56;10249760;28;857;-73
2024/02/01 16:21:58;;;;;;;;;;;;;;;18.01;42.52;101147.63;10249542;28;1894;-73
2024/02/01 16:26:54;;;;;;;;;;;;;;;18.01;42.34;101152.91;10248097;28;797;-74
2024/02/01 16:31:50;;;;;;;;;;;;;;;18.00;42.34;101153.81;10248197;28;1346;-76
2024/02/01 16:36:46;;;;;;;;;;;;;;;18.02;42.22;101152.00;10247815;28;1627;-73
2024/02/01 16:41:41;;;;;;;;;;;;;;;18.01;42.48;101166.09;10248811;28;1965;-77
2024/02/01 16:46:37;;;;;;;;;;;;;;;17.96;42.02;101173.25;10247853;28;814;-73
2024/02/01 16:51:33;;;;;;;;;;;;;;;17.93;42.42;101176.81;10248432;28;862;-73
2024/02/01 16:56:30;;;;;;;;;;;;;;;17.94;42.24;101173.28;10247295;28;1205;-73
2024/02/01 17:01:26;;;;;;;;;;;;;;;17.93;42.25;101174.19;10247368;28;1886;-73
2024/02/01 17:06:22;;;;;;;;;;;;;;;17.97;42.23;101167.06;10247794;28;779;-73
2024/02/01 17:11:18;;;;;;;;;;;;;;;17.96;42.05;101176.75;10247068;28;857;-73
2024/02/01 17:16:14;;;;;;;;;;;;;;;17.96;42.05;101174.09;10247693;28;957;-73
2024/02/01 17:21:10;;;;;;;;;;;;;;;17.96;42.18;101179.38;10246610;28;1963;-73
2024/02/01 17:26:06;;;;;;;;;;;;;;;17.99;42.22;101180.22;10246515;28;779;-73
2024/02/01 17:31:02;;;;;;;;;;;;;;;17.96;42.42;101182.03;10245660;28;1397;-74
2024/02/01 17:35:58;;;;;;;;;;;;;;;17.99;42.22;101185.50;10246259;28;766;-73
2024/02/01 17:40:57;;;;;;;;;;;;;;;18.00;42.44;101187.22;10245911;28;770;-74
2024/02/01 17:45:53;;;;;;;;;;;;;;;17.99;42.50;101175.81;10245686;28;1915;-73
2024/02/01 17:50:49;;;;;;;;;;;;;;;18.00;42.21;101161.75;10245548;28;920;-73
2024/02/01 17:55:46;;;;;;;;;;;;;;;18.01;42.21;101168.75;10245369;28;783;-74
2024/02/01 18:00:42;;;;;;;;;;;;;;;18.01;42.09;101157.31;10244158;28;818;-73
2024/02/01 18:05:38;;;;;;;;;;;;;;;18.01;42.11;101168.75;10244676;28;1902;-73
2024/02/01 18:10:38;;;;;;;;;;;;;;;18.02;42.18;101183.66;10245494;28;815;-73
2024/02/01 18:15:34;;;;;;;;;;;;;;;18.01;42.23;101184.56;10244579;28;855;-73
2024/02/01 18:20:30;;;;;;;;;;;;;;;18.04;42.30;101188.91;10245067;28;805;-74
2024/02/01 18:25:25;;;;;;;;;;;;;;;18.04;42.25;101210.03;10244884;28;1894;-75
2024/02/01 18:30:21;;;;;;;;;;;;;;;18.04;42.29;101224.09;10244430;28;1126;-73
2024/02/01 18:35:17;;;;;;;;;;;;;;;18.06;42.22;101218.78;10244099;28;1014;-74
2024/02/01 18:40:13;;;;;;;;;;;;;;;18.04;42.18;101218.81;10243415;28;877;-74
2024/02/01 18:45:09;;;;;;;;;;;;;;;18.04;42.23;101232.00;10243694;28;1883;-73
2024/02/01 18:50:05;;;;;;;;;;;;;;;18.05;42.25;101223.19;10244347;28;815;-73
2024/02/01 18:55:01;;;;;;;;;;;;;;;18.05;41.96;101228.47;10243137;28;869;-74
2024/02/01 18:59:59;;;;;;;;;;;;;;;18.05;42.29;101220.56;10243616;28;779;-74
2024/02/01 19:04:55;;;;;;;;;;;;;;;18.06;42.22;101224.94;10243342;28;1945;-74
2024/02/01 19:09:51;;;;;;;;;;;;;;;18.06;42.13;101224.94;10245132;28;807;-74
2024/02/01 19:14:52;;;;;;;;;;;;;;;18.06;42.22;101219.66;10252061;28;868;-74
2024/02/01 19:19:48;;;;;;;;;;;;;;;18.07;42.21;101215.22;10252145;28;867;-73
2024/02/01 19:24:43;;;;;;;;;;;;;;;18.07;42.22;101217.88;10251099;28;1941;-73
2024/02/01 19:29:39;;;;;;;;;;;;;;;18.06;42.23;101208.22;10251071;28;1224;-73
2024/02/01 19:34:36;;;;;;;;;;;;;;;18.07;42.06;101217.88;10250951;28;958;-74
2024/02/01 19:39:32;;;;;;;;;;;;;;;18.07;41.94;101216.09;10250559;28;985;-74
2024/02/01 19:44:32;;;;;;;;;;;;;;;18.05;42.13;101207.38;10250584;28;1906;-74
2024/02/01 19:49:28;;;;;;;;;;;;;;;18.10;41.91;101210.78;10250762;28;901;-73
2024/02/01 19:54:24;;;;;;;;;;;;;;;18.09;42.14;101209.03;10250037;28;888;-73
2024/02/01 19:59:20;;;;;;;;;;;;;;;18.09;42.16;101216.06;10250416;28;917;-74
2024/02/01 20:04:16;;;;;;;;;;;;;;;18.10;42.19;101216.06;10249824;28;1898;-73
2024/02/01 20:09:12;;;;;;;;;;;;;;;18.10;42.06;101218.69;10249095;28;771;-74
2024/02/01 20:14:09;;;;;;;;;;;;;;;18.09;42.00;101209.03;10249290;28;779;-74
2024/02/01 20:19:05;;;;;;;;;;;;;;;18.09;41.92;101198.47;10249081;28;958;-74
2024/02/01 20:24:02;;;;;;;;;;;;;;;18.09;42.12;101198.47;10248061;28;1961;-74
2024/02/01 20:28:58;;;;;;;;;;;;;;;18.09;42.09;101193.19;10248531;28;1204;-73
2024/02/01 20:33:54;;;;;;;;;;;;;;;18.09;41.99;101198.47;10248567;28;941;-73
2024/02/01 20:38:50;;;;;;;;;;;;;;;18.06;42.03;101211.72;10248621;28;886;-74
2024/02/01 20:43:46;;;;;;;;;;;;;;;18.05;42.03;101210.00;10248909;28;1973;-74
2024/02/01 20:48:44;;;;;;;;;;;;;;;18.02;42.03;101207.41;10247884;28;984;-74
2024/02/01 20:53:40;;;;;;;;;;;;;;;18.03;41.96;101211.81;10248457;28;881;-73
2024/02/01 20:58:42;;;;;;;;;;;;;;;18.01;42.02;101213.59;10247650;28;985;-74
2024/02/01 21:03:38;;;;;;;;;;;;;;;17.99;42.11;101212.75;10247400;28;1949;-74
2024/02/01 21:08:34;;;;;;;;;;;;;;;17.99;42.04;101223.31;10247218;28;807;-74
2024/02/01 21:13:30;;;;;;;;;;;;;;;17.98;42.05;101224.22;10247621;28;779;-73
2024/02/01 21:18:26;;;;;;;;;;;;;;;17.97;42.04;101235.66;10247470;28;948;-74
2024/02/01 21:23:22;;;;;;;;;;;;;;;17.96;42.00;101241.84;10246557;28;1882;-74
2024/02/01 21:28:18;;;;;;;;;;;;;;;17.95;41.93;101254.16;10246543;28;834;-74
2024/02/01 21:33:14;;;;;;;;;;;;;;;17.94;42.15;101248.91;10245298;28;1358;-73
2024/02/01 21:38:13;;;;;;;;;;;;;;;17.94;41.92;101243.63;10247207;28;850;-73
2024/02/01 21:43:09;;;;;;;;;;;;;;;17.92;42.13;101254.22;10246670;28;1970;-73
2024/02/01 21:48:05;;;;;;;;;;;;;;;17.90;41.95;101265.72;10246584;28;830;-73
2024/02/01 21:53:00;;;;;;;;;;;;;;;17.88;41.93;101263.09;10246297;28;1039;-73
2024/02/01 21:57:56;;;;;;;;;;;;;;;17.85;42.09;101257.88;10246195;28;901;-73
2024/02/01 22:02:52;;;;;;;;;;;;;;;17.83;41.95;101258.81;10245401;28;1890;-73
2024/02/01 22:07:48;;;;;;;;;;;;;;;17.81;41.89;101250.06;10245149;28;871;-73
2024/02/01 22:12:44;;;;;;;;;;;;;;;17.79;42.10;101228.06;10245008;28;859;-73
2024/02/01 22:17:40;;;;;;;;;;;;;;;17.78;42.08;101213.16;10244468;28;869;-73
2024/02/01 22:22:39;;;;;;;;;;;;;;;17.75;41.91;101193.00;10244270;28;1949;-73
2024/02/01 22:27:34;;;;;;;;;;;;;;;17.72;41.87;101199.19;10244049;28;856;-73
2024/02/01 22:32:30;;;;;;;;;;;;;;;17.71;41.96;101193.94;10244770;28;1137;-73
2024/02/01 22:37:26;;;;;;;;;;;;;;;17.69;41.93;101194.00;10243775;28;841;-73
2024/02/01 22:42:22;;;;;;;;;;;;;;;17.67;41.91;101194.91;10244676;28;1959;-73
2024/02/01 22:47:18;;;;;;;;;;;;;;;17.65;41.99;101197.56;10244010;28;977;-73
2024/02/01 22:52:14;;;;;;;;;;;;;;;17.63;42.14;101194.13;10244016;28;869;-73
2024/02/01 22:57:10;;;;;;;;;;;;;;;17.61;42.27;101177.44;10244450;28;957;-73
2024/02/01 23:02:06;;;;;;;;;;;;;;;17.59;41.92;101175.75;10243557;28;1953;-73
2024/02/01 23:07:03;;;;;;;;;;;;;;;17.58;42.10;101176.63;10243752;28;798;-73
2024/02/01 23:11:59;;;;;;;;;;;;;;;17.56;42.08;101154.72;10243582;28;961;-73
2024/02/01 23:16:55;;;;;;;;;;;;;;;17.54;42.00;101149.47;10244769;28;924;-73
2024/02/01 23:21:52;;;;;;;;;;;;;;;17.52;42.10;101144.22;10242852;28;1898;-73
2024/02/01 23:26:48;;;;;;;;;;;;;;;17.50;41.92;101156.56;10243339;28;954;-73
2024/02/01 23:31:44;;;;;;;;;;;;;;;17.50;41.91;101163.59;10244048;28;1121;-73
2024/02/01 23:36:40;;;;;;;;;;;;;;;17.49;42.05;101162.72;10243117;28;783;-73
2024/02/01 23:41:36;;;;;;;;;;;;;;;17.47;42.19;101177.69;10243786;28;1972;-73
2024/02/01 23:46:32;;;;;;;;;;;;;;;17.47;42.08;101175.06;10243059;28;847;-73
2024/02/01 23:51:27;;;;;;;;;;;;;;;17.47;42.08;101150.47;10243162;28;822;-73
2024/02/01 23:56:23;;;;;;;;;;;;;;;17.45;42.07;101147.03;10245897;28;782;-72
